Aviation Digital Data Service (ADDS)

Output produced by METARs form (2024 UTC 21 September 2021)
found at http://www.aviationweather.gov/metar/data/
 
TAF MHLC 211730Z 2118/2218 05010KT 9999 FEW026 TX32/2119Z TN24/2212Z 
     BECMG 2200/2202 7000 VCSH SCT032TCU 
     BECMG 2204/2206 VRB04KT 9999 NSW SCT032